VTK605 UHMM-UEEE
Flight info
| Callsign | VTK605 |
|---|---|
| Flight time | 1h 36m |
| Altitude | 38000 |
| Route | KUKIR A949 INLIR G370 KUTEG |
| Aircraft | B38M/M-SDE1FGHILORVWXY/HB1 |
Departure
| Time | 2026-05-05 11:38 |
|---|---|
| Airport | Sokol Airport (UHMM) |
Arrival
| Time | 2026-05-05 13:14 |
|---|---|
| Airport | Platon Oyunsky Yakutsk International Airport (UEEE) |
| Time | Latitude | Longitude | Altitude | Speed | Heading |
|---|---|---|---|---|---|
| 2026-05-05 11:23 | 59.91369 | 150.71873 | 585 ft | 0 kts | 183° |
| 2026-05-05 11:33 | 59.91362 | 150.71872 | 585 ft | 2 kts | 183° |
| 2026-05-05 11:33 | 59.91339 | 150.71882 | 585 ft | 6 kts | 153° |
| 2026-05-05 11:33 | 59.91313 | 150.72036 | 585 ft | 17 kts | 94° |
| 2026-05-05 11:33 | 59.91308 | 150.72272 | 585 ft | 20 kts | 92° |
| 2026-05-05 11:34 | 59.91303 | 150.72544 | 585 ft | 11 kts | 93° |
| 2026-05-05 11:34 | 59.91299 | 150.72605 | 585 ft | 3 kts | 101° |
| 2026-05-05 11:34 | 59.91288 | 150.72654 | 585 ft | 7 kts | 126° |
| 2026-05-05 11:34 | 59.91203 | 150.72684 | 585 ft | 19 kts | 183° |
| 2026-05-05 11:35 | 59.91084 | 150.72763 | 587 ft | 19 kts | 111° |
| 2026-05-05 11:35 | 59.91071 | 150.73034 | 588 ft | 20 kts | 92° |
| 2026-05-05 11:35 | 59.91064 | 150.73329 | 586 ft | 23 kts | 94° |
| 2026-05-05 11:35 | 59.91055 | 150.73651 | 584 ft | 22 kts | 92° |
| 2026-05-05 11:36 | 59.91047 | 150.73964 | 583 ft | 22 kts | 93° |
| 2026-05-05 11:36 | 59.91037 | 150.74272 | 584 ft | 23 kts | 94° |
| 2026-05-05 11:36 | 59.91029 | 150.74586 | 588 ft | 22 kts | 92° |
| 2026-05-05 11:36 | 59.91016 | 150.74896 | 587 ft | 21 kts | 108° |
| 2026-05-05 11:37 | 59.91023 | 150.75034 | 587 ft | 6 kts | 341° |
| 2026-05-05 11:37 | 59.91025 | 150.74975 | 588 ft | 6 kts | 261° |
| 2026-05-05 11:37 | 59.91023 | 150.74811 | 587 ft | 20 kts | 272° |
| 2026-05-05 11:37 | 59.91041 | 150.74135 | 584 ft | 87 kts | 273° |
| 2026-05-05 11:38 | 59.91086 | 150.72463 | 585 ft | 152 kts | 273° |
| 2026-05-05 11:38 | 59.91134 | 150.70143 | 952 ft | 172 kts | 271° |
| 2026-05-05 11:38 | 59.91173 | 150.67722 | 1787 ft | 172 kts | 274° |
| 2026-05-05 11:38 | 59.91236 | 150.65333 | 2543 ft | 183 kts | 277° |
| 2026-05-05 11:39 | 59.91314 | 150.62661 | 2986 ft | 203 kts | 276° |
| 2026-05-05 11:39 | 59.91398 | 150.59694 | 3418 ft | 227 kts | 276° |
| 2026-05-05 11:39 | 59.91493 | 150.56331 | 3839 ft | 256 kts | 275° |
| 2026-05-05 11:39 | 59.91595 | 150.52683 | 4523 ft | 271 kts | 275° |
| 2026-05-05 11:40 | 59.91701 | 150.48842 | 5261 ft | 285 kts | 273° |
| 2026-05-05 11:40 | 59.91971 | 150.44860 | 6071 ft | 295 kts | 285° |
| 2026-05-05 11:40 | 59.92483 | 150.40883 | 7006 ft | 297 kts | 284° |
| 2026-05-05 11:40 | 59.92976 | 150.36880 | 8044 ft | 297 kts | 283° |
| 2026-05-05 11:41 | 59.93457 | 150.32868 | 9049 ft | 298 kts | 283° |
| 2026-05-05 11:41 | 59.93932 | 150.28845 | 10032 ft | 297 kts | 283° |
| 2026-05-05 11:41 | 59.94414 | 150.24720 | 10584 ft | 314 kts | 283° |
| 2026-05-05 11:41 | 59.94915 | 150.20398 | 11136 ft | 328 kts | 283° |
| 2026-05-05 11:42 | 59.95435 | 150.15889 | 11752 ft | 339 kts | 283° |
| 2026-05-05 11:42 | 59.95969 | 150.11248 | 12462 ft | 347 kts | 283° |
| 2026-05-05 11:42 | 59.96509 | 150.06520 | 13281 ft | 352 kts | 283° |
| 2026-05-05 11:42 | 59.97055 | 150.01731 | 14008 ft | 356 kts | 282° |
| 2026-05-05 11:43 | 59.97606 | 149.96880 | 14739 ft | 359 kts | 282° |
| 2026-05-05 11:43 | 59.98160 | 149.91984 | 15452 ft | 364 kts | 281° |
| 2026-05-05 11:43 | 59.98719 | 149.87033 | 16187 ft | 368 kts | 281° |
| 2026-05-05 11:43 | 59.99282 | 149.82021 | 16918 ft | 372 kts | 281° |
| 2026-05-05 11:44 | 59.99850 | 149.76948 | 17637 ft | 375 kts | 281° |
| 2026-05-05 11:44 | 60.00420 | 149.71840 | 18271 ft | 379 kts | 281° |
| 2026-05-05 11:44 | 60.00994 | 149.66671 | 18856 ft | 384 kts | 281° |
| 2026-05-05 11:44 | 60.01574 | 149.61428 | 19421 ft | 387 kts | 280° |
| 2026-05-05 11:45 | 60.02149 | 149.56214 | 19954 ft | 391 kts | 280° |
| 2026-05-05 11:45 | 60.02686 | 149.50781 | 20505 ft | 395 kts | 278° |
| 2026-05-05 11:45 | 60.03172 | 149.45425 | 21055 ft | 399 kts | 278° |
| 2026-05-05 11:45 | 60.03675 | 149.39945 | 21642 ft | 402 kts | 278° |
| 2026-05-05 11:46 | 60.04182 | 149.34422 | 22215 ft | 405 kts | 277° |
| 2026-05-05 11:46 | 60.04693 | 149.28842 | 22727 ft | 410 kts | 277° |
| 2026-05-05 11:46 | 60.05212 | 149.23141 | 23255 ft | 413 kts | 277° |
| 2026-05-05 11:46 | 60.05720 | 149.17532 | 23679 ft | 417 kts | 277° |
| 2026-05-05 11:47 | 60.06238 | 149.11794 | 24138 ft | 419 kts | 277° |
| 2026-05-05 11:47 | 60.06751 | 149.06038 | 24564 ft | 422 kts | 277° |
| 2026-05-05 11:47 | 60.07269 | 149.00214 | 25002 ft | 425 kts | 277° |
| 2026-05-05 11:47 | 60.07786 | 148.94367 | 25451 ft | 427 kts | 276° |
| 2026-05-05 11:48 | 60.08820 | 148.82578 | 26274 ft | 433 kts | 276° |
| 2026-05-05 11:48 | 60.09339 | 148.76619 | 26695 ft | 435 kts | 276° |
| 2026-05-05 11:48 | 60.09857 | 148.70629 | 27079 ft | 438 kts | 276° |
| 2026-05-05 11:49 | 60.10377 | 148.64584 | 27479 ft | 441 kts | 275° |
| 2026-05-05 11:49 | 60.10897 | 148.58500 | 27859 ft | 444 kts | 275° |
| 2026-05-05 11:49 | 60.11418 | 148.52379 | 28278 ft | 446 kts | 275° |
| 2026-05-05 11:49 | 60.11939 | 148.46212 | 28592 ft | 451 kts | 275° |
| 2026-05-05 11:50 | 60.12463 | 148.39986 | 28964 ft | 454 kts | 275° |
| 2026-05-05 11:50 | 60.12988 | 148.33707 | 29301 ft | 457 kts | 275° |
| 2026-05-05 11:50 | 60.13511 | 148.27409 | 29657 ft | 460 kts | 275° |
| 2026-05-05 11:50 | 60.14035 | 148.21065 | 29968 ft | 462 kts | 275° |
| 2026-05-05 11:51 | 60.14557 | 148.14699 | 30313 ft | 463 kts | 275° |
| 2026-05-05 11:51 | 60.15080 | 148.08295 | 30625 ft | 465 kts | 274° |
| 2026-05-05 11:51 | 60.15601 | 148.01870 | 30932 ft | 466 kts | 274° |
| 2026-05-05 11:51 | 60.16118 | 147.95456 | 31307 ft | 466 kts | 274° |
| 2026-05-05 11:52 | 60.16632 | 147.89025 | 31668 ft | 466 kts | 274° |
| 2026-05-05 11:52 | 60.17139 | 147.82653 | 31952 ft | 468 kts | 274° |
| 2026-05-05 11:52 | 60.17651 | 147.76179 | 32262 ft | 469 kts | 274° |
| 2026-05-05 11:52 | 60.18159 | 147.69708 | 32546 ft | 471 kts | 274° |
| 2026-05-05 11:53 | 60.18668 | 147.63177 | 32865 ft | 472 kts | 274° |
| 2026-05-05 11:53 | 60.19172 | 147.56672 | 33264 ft | 471 kts | 273° |
| 2026-05-05 11:53 | 60.19673 | 147.50171 | 33697 ft | 468 kts | 273° |
| 2026-05-05 11:53 | 60.20167 | 147.43715 | 34018 ft | 467 kts | 273° |
| 2026-05-05 11:54 | 60.20658 | 147.37257 | 34314 ft | 467 kts | 273° |
| 2026-05-05 11:54 | 60.21146 | 147.30793 | 34581 ft | 466 kts | 274° |
| 2026-05-05 11:54 | 60.21628 | 147.24370 | 34841 ft | 466 kts | 273° |
| 2026-05-05 11:54 | 60.22104 | 147.17909 | 35111 ft | 466 kts | 273° |
| 2026-05-05 11:55 | 60.22582 | 147.11462 | 35366 ft | 466 kts | 274° |
| 2026-05-05 11:55 | 60.23056 | 147.05019 | 35630 ft | 466 kts | 274° |
| 2026-05-05 11:55 | 60.23526 | 146.98570 | 35935 ft | 465 kts | 273° |
| 2026-05-05 11:55 | 60.23992 | 146.92142 | 36222 ft | 464 kts | 273° |
| 2026-05-05 11:56 | 60.24449 | 146.85786 | 36483 ft | 464 kts | 273° |
| 2026-05-05 11:56 | 60.24908 | 146.79355 | 36719 ft | 464 kts | 273° |
| 2026-05-05 11:56 | 60.25364 | 146.72931 | 36986 ft | 464 kts | 274° |
| 2026-05-05 11:56 | 60.25818 | 146.66479 | 37155 ft | 465 kts | 274° |
| 2026-05-05 11:57 | 60.26268 | 146.60029 | 37366 ft | 466 kts | 274° |
| 2026-05-05 11:57 | 60.26717 | 146.53566 | 37550 ft | 466 kts | 274° |
| 2026-05-05 11:57 | 60.27605 | 146.40629 | 37545 ft | 464 kts | 273° |
| 2026-05-05 11:58 | 60.28477 | 146.27732 | 37555 ft | 464 kts | 273° |
| 2026-05-05 11:58 | 60.29339 | 146.14852 | 37564 ft | 464 kts | 273° |
| 2026-05-05 11:59 | 60.30191 | 146.01951 | 37569 ft | 464 kts | 273° |
| 2026-05-05 11:59 | 60.31563 | 145.89309 | 37576 ft | 469 kts | 287° |
| 2026-05-05 12:00 | 60.33751 | 145.76878 | 37567 ft | 471 kts | 285° |
| 2026-05-05 12:00 | 60.35941 | 145.64403 | 37572 ft | 472 kts | 286° |
| 2026-05-05 12:01 | 60.38128 | 145.51904 | 37582 ft | 471 kts | 285° |
| 2026-05-05 12:01 | 60.40300 | 145.39410 | 37575 ft | 471 kts | 285° |
| 2026-05-05 12:02 | 60.42460 | 145.26907 | 37591 ft | 471 kts | 285° |
| 2026-05-05 12:02 | 60.44608 | 145.14390 | 37583 ft | 470 kts | 285° |
| 2026-05-05 12:03 | 60.46742 | 145.01862 | 37579 ft | 470 kts | 285° |
| 2026-05-05 12:03 | 60.48865 | 144.89320 | 37578 ft | 470 kts | 285° |
| 2026-05-05 12:04 | 60.50616 | 144.78906 | 37582 ft | 471 kts | 285° |
| 2026-05-05 12:04 | 60.52719 | 144.66320 | 37589 ft | 470 kts | 285° |
| 2026-05-05 12:05 | 60.54808 | 144.53734 | 37595 ft | 470 kts | 285° |
| 2026-05-05 12:05 | 60.56887 | 144.41124 | 37587 ft | 470 kts | 284° |
| 2026-05-05 12:06 | 60.58952 | 144.28532 | 37589 ft | 470 kts | 284° |
| 2026-05-05 12:06 | 60.61010 | 144.15909 | 37594 ft | 470 kts | 284° |
| 2026-05-05 12:07 | 60.63060 | 144.03273 | 37590 ft | 470 kts | 284° |
| 2026-05-05 12:07 | 60.65098 | 143.90619 | 37593 ft | 470 kts | 284° |
| 2026-05-05 12:08 | 60.67108 | 143.78057 | 37613 ft | 470 kts | 284° |
| 2026-05-05 12:08 | 60.69117 | 143.65406 | 37578 ft | 466 kts | 284° |
| 2026-05-05 12:09 | 60.71108 | 143.52793 | 37610 ft | 467 kts | 284° |
| 2026-05-05 12:09 | 60.73085 | 143.40153 | 37589 ft | 467 kts | 284° |
| 2026-05-05 12:10 | 60.75047 | 143.27533 | 37593 ft | 467 kts | 284° |
| 2026-05-05 12:10 | 60.77002 | 143.14874 | 37586 ft | 467 kts | 284° |
| 2026-05-05 12:11 | 60.78940 | 143.02192 | 37604 ft | 467 kts | 284° |
| 2026-05-05 12:11 | 60.80871 | 142.89479 | 37594 ft | 467 kts | 284° |
| 2026-05-05 12:12 | 60.82786 | 142.76769 | 37600 ft | 467 kts | 284° |
| 2026-05-05 12:12 | 60.84692 | 142.64030 | 37597 ft | 467 kts | 284° |
| 2026-05-05 12:13 | 60.86584 | 142.51288 | 37602 ft | 467 kts | 284° |
| 2026-05-05 12:13 | 60.88463 | 142.38535 | 37596 ft | 467 kts | 283° |
| 2026-05-05 12:14 | 60.90313 | 142.25888 | 37604 ft | 466 kts | 284° |
| 2026-05-05 12:14 | 60.92161 | 142.13149 | 37600 ft | 465 kts | 284° |
| 2026-05-05 12:15 | 60.93996 | 142.00412 | 37605 ft | 464 kts | 284° |
| 2026-05-05 12:15 | 60.95818 | 141.87662 | 37602 ft | 464 kts | 283° |
| 2026-05-05 12:16 | 60.97628 | 141.74900 | 37608 ft | 464 kts | 283° |
| 2026-05-05 12:16 | 60.99424 | 141.62132 | 37615 ft | 464 kts | 283° |
| 2026-05-05 12:17 | 61.01210 | 141.49338 | 37608 ft | 464 kts | 283° |
| 2026-05-05 12:17 | 61.02979 | 141.36566 | 37613 ft | 463 kts | 283° |
| 2026-05-05 12:18 | 61.04736 | 141.23778 | 37606 ft | 463 kts | 283° |
| 2026-05-05 12:18 | 61.06477 | 141.11003 | 37612 ft | 462 kts | 283° |
| 2026-05-05 12:19 | 61.08206 | 140.98215 | 37614 ft | 461 kts | 283° |
| 2026-05-05 12:19 | 61.09917 | 140.85455 | 37618 ft | 461 kts | 283° |
| 2026-05-05 12:20 | 61.11620 | 140.72655 | 37612 ft | 461 kts | 283° |
| 2026-05-05 12:20 | 61.13301 | 140.59952 | 37619 ft | 461 kts | 283° |
| 2026-05-05 12:21 | 61.14977 | 140.47163 | 37623 ft | 460 kts | 283° |
| 2026-05-05 12:21 | 61.16636 | 140.34347 | 37616 ft | 460 kts | 283° |
| 2026-05-05 12:22 | 61.18288 | 140.21531 | 37618 ft | 460 kts | 283° |
| 2026-05-05 12:22 | 61.19928 | 140.08703 | 37619 ft | 460 kts | 283° |
| 2026-05-05 12:23 | 61.21556 | 139.95856 | 37622 ft | 460 kts | 283° |
| 2026-05-05 12:23 | 61.23169 | 139.83017 | 37620 ft | 459 kts | 283° |
| 2026-05-05 12:24 | 61.24769 | 139.70169 | 37612 ft | 459 kts | 283° |
| 2026-05-05 12:24 | 61.26358 | 139.57310 | 37610 ft | 459 kts | 283° |
| 2026-05-05 12:25 | 61.27922 | 139.44530 | 37610 ft | 459 kts | 282° |
| 2026-05-05 12:25 | 61.29482 | 139.31681 | 37600 ft | 459 kts | 282° |
| 2026-05-05 12:26 | 61.31035 | 139.18775 | 37613 ft | 459 kts | 282° |
| 2026-05-05 12:26 | 61.32572 | 139.05885 | 37614 ft | 459 kts | 282° |
| 2026-05-05 12:27 | 61.34099 | 138.92962 | 37611 ft | 459 kts | 282° |
| 2026-05-05 12:27 | 61.35611 | 138.80057 | 37609 ft | 459 kts | 282° |
| 2026-05-05 12:28 | 61.37112 | 138.67122 | 37617 ft | 458 kts | 282° |
| 2026-05-05 12:28 | 61.38599 | 138.54189 | 37604 ft | 458 kts | 282° |
| 2026-05-05 12:29 | 61.40075 | 138.41237 | 37617 ft | 458 kts | 282° |
| 2026-05-05 12:29 | 61.41534 | 138.28308 | 37603 ft | 458 kts | 282° |
| 2026-05-05 12:30 | 61.42984 | 138.15349 | 37604 ft | 458 kts | 282° |
| 2026-05-05 12:30 | 61.44419 | 138.02394 | 37606 ft | 458 kts | 282° |
| 2026-05-05 12:31 | 61.45844 | 137.89411 | 37613 ft | 458 kts | 281° |
| 2026-05-05 12:31 | 61.47254 | 137.76437 | 37606 ft | 458 kts | 281° |
| 2026-05-05 12:32 | 61.48653 | 137.63435 | 37615 ft | 458 kts | 281° |
| 2026-05-05 12:32 | 61.50030 | 137.50512 | 37615 ft | 458 kts | 281° |
| 2026-05-05 12:33 | 61.51405 | 137.37495 | 37595 ft | 457 kts | 281° |
| 2026-05-05 12:33 | 61.52763 | 137.24491 | 37600 ft | 458 kts | 281° |
| 2026-05-05 12:34 | 61.54112 | 137.11449 | 37595 ft | 458 kts | 281° |
| 2026-05-05 12:34 | 61.55450 | 136.98392 | 37602 ft | 458 kts | 281° |
| 2026-05-05 12:35 | 61.56774 | 136.85328 | 37599 ft | 458 kts | 281° |
| 2026-05-05 12:35 | 61.58077 | 136.72337 | 37600 ft | 458 kts | 281° |
| 2026-05-05 12:36 | 61.59377 | 136.59252 | 37602 ft | 458 kts | 281° |
| 2026-05-05 12:36 | 61.60662 | 136.46168 | 37602 ft | 458 kts | 281° |
| 2026-05-05 12:37 | 61.61941 | 136.33057 | 37601 ft | 458 kts | 280° |
| 2026-05-05 12:37 | 61.63207 | 136.19955 | 37603 ft | 458 kts | 280° |
| 2026-05-05 12:38 | 61.64464 | 136.06815 | 37604 ft | 458 kts | 280° |
| 2026-05-05 12:38 | 61.65686 | 135.93677 | 37603 ft | 457 kts | 280° |
| 2026-05-05 12:39 | 61.66902 | 135.80560 | 37608 ft | 457 kts | 280° |
| 2026-05-05 12:39 | 61.68111 | 135.67391 | 37606 ft | 457 kts | 280° |
| 2026-05-05 12:40 | 61.69298 | 135.54332 | 37603 ft | 457 kts | 279° |
| 2026-05-05 12:40 | 61.70482 | 135.41150 | 37606 ft | 457 kts | 279° |
| 2026-05-05 12:41 | 61.71652 | 135.27982 | 37600 ft | 457 kts | 279° |
| 2026-05-05 12:41 | 61.72817 | 135.14802 | 37609 ft | 457 kts | 279° |
| 2026-05-05 12:42 | 61.73991 | 135.01633 | 37612 ft | 457 kts | 279° |
| 2026-05-05 12:42 | 61.75147 | 134.88445 | 37612 ft | 456 kts | 279° |
| 2026-05-05 12:43 | 61.76278 | 134.75419 | 37103 ft | 446 kts | 279° |
| 2026-05-05 12:43 | 61.76834 | 134.68969 | 36425 ft | 446 kts | 279° |
| 2026-05-05 12:43 | 61.77387 | 134.62523 | 35804 ft | 446 kts | 279° |
| 2026-05-05 12:44 | 61.77935 | 134.56099 | 35283 ft | 443 kts | 279° |
| 2026-05-05 12:44 | 61.78478 | 134.49698 | 34647 ft | 442 kts | 278° |
| 2026-05-05 12:44 | 61.79012 | 134.43356 | 34026 ft | 434 kts | 278° |
| 2026-05-05 12:44 | 61.79533 | 134.37142 | 33525 ft | 424 kts | 278° |
| 2026-05-05 12:45 | 61.80042 | 134.31038 | 33047 ft | 420 kts | 278° |
| 2026-05-05 12:45 | 61.80542 | 134.24999 | 32534 ft | 417 kts | 278° |
| 2026-05-05 12:45 | 61.81038 | 134.18981 | 32049 ft | 414 kts | 278° |
| 2026-05-05 12:45 | 61.81528 | 134.12997 | 31601 ft | 411 kts | 277° |
| 2026-05-05 12:46 | 61.82011 | 134.07065 | 31142 ft | 408 kts | 277° |
| 2026-05-05 12:46 | 61.82483 | 134.01244 | 30686 ft | 406 kts | 277° |
| 2026-05-05 12:46 | 61.82956 | 133.95364 | 30241 ft | 404 kts | 277° |
| 2026-05-05 12:46 | 61.83425 | 133.89518 | 29798 ft | 402 kts | 276° |
| 2026-05-05 12:47 | 61.83889 | 133.83699 | 29286 ft | 400 kts | 276° |
| 2026-05-05 12:47 | 61.84348 | 133.77913 | 28816 ft | 396 kts | 276° |
| 2026-05-05 12:47 | 61.84799 | 133.72209 | 28431 ft | 392 kts | 277° |
| 2026-05-05 12:47 | 61.85245 | 133.66540 | 27999 ft | 389 kts | 276° |
| 2026-05-05 12:48 | 61.85666 | 133.60908 | 27517 ft | 386 kts | 276° |
| 2026-05-05 12:48 | 61.86082 | 133.55315 | 27138 ft | 382 kts | 276° |
| 2026-05-05 12:48 | 61.86493 | 133.49778 | 26760 ft | 379 kts | 276° |
| 2026-05-05 12:48 | 61.86899 | 133.44291 | 26366 ft | 376 kts | 277° |
| 2026-05-05 12:49 | 61.87300 | 133.38837 | 25976 ft | 373 kts | 277° |
| 2026-05-05 12:49 | 61.87696 | 133.33424 | 25590 ft | 370 kts | 277° |
| 2026-05-05 12:49 | 61.88085 | 133.28060 | 25213 ft | 368 kts | 277° |
| 2026-05-05 12:49 | 61.88471 | 133.22720 | 24829 ft | 366 kts | 277° |
| 2026-05-05 12:50 | 61.88724 | 133.19216 | 24590 ft | 364 kts | 277° |
| 2026-05-05 12:50 | 61.89104 | 133.13912 | 24216 ft | 362 kts | 277° |
| 2026-05-05 12:50 | 61.89479 | 133.08639 | 23844 ft | 360 kts | 277° |
| 2026-05-05 12:50 | 61.89850 | 133.03403 | 23477 ft | 358 kts | 277° |
| 2026-05-05 12:51 | 61.90218 | 132.98188 | 23079 ft | 356 kts | 277° |
| 2026-05-05 12:51 | 61.90580 | 132.93003 | 22656 ft | 354 kts | 277° |
| 2026-05-05 12:51 | 61.90939 | 132.87856 | 22282 ft | 350 kts | 277° |
| 2026-05-05 12:51 | 61.91292 | 132.82764 | 21926 ft | 347 kts | 277° |
| 2026-05-05 12:52 | 61.91639 | 132.77729 | 21586 ft | 343 kts | 278° |
| 2026-05-05 12:52 | 61.91981 | 132.72731 | 21234 ft | 340 kts | 278° |
| 2026-05-05 12:52 | 61.92318 | 132.67798 | 20890 ft | 337 kts | 278° |
| 2026-05-05 12:52 | 61.92652 | 132.62895 | 20543 ft | 334 kts | 278° |
| 2026-05-05 12:53 | 61.92982 | 132.58112 | 20520 ft | 320 kts | 278° |
| 2026-05-05 12:53 | 61.93298 | 132.53501 | 20388 ft | 311 kts | 278° |
| 2026-05-05 12:53 | 61.93607 | 132.48996 | 20144 ft | 308 kts | 278° |
| 2026-05-05 12:53 | 61.93917 | 132.44443 | 19840 ft | 312 kts | 278° |
| 2026-05-05 12:54 | 61.94531 | 132.35351 | 19192 ft | 312 kts | 278° |
| 2026-05-05 12:54 | 61.94835 | 132.30818 | 18875 ft | 309 kts | 278° |
| 2026-05-05 12:54 | 61.95135 | 132.26314 | 18557 ft | 307 kts | 278° |
| 2026-05-05 12:55 | 61.95432 | 132.21840 | 18248 ft | 304 kts | 278° |
| 2026-05-05 12:55 | 61.95725 | 132.17407 | 17932 ft | 302 kts | 278° |
| 2026-05-05 12:55 | 61.96013 | 132.13020 | 17581 ft | 299 kts | 278° |
| 2026-05-05 12:55 | 61.96298 | 132.08666 | 17249 ft | 296 kts | 278° |
| 2026-05-05 12:56 | 61.96577 | 132.04362 | 16925 ft | 293 kts | 278° |
| 2026-05-05 12:56 | 61.96854 | 132.00099 | 16627 ft | 289 kts | 278° |
| 2026-05-05 12:56 | 61.97121 | 131.95945 | 16330 ft | 286 kts | 278° |
| 2026-05-05 12:56 | 61.97388 | 131.91779 | 16029 ft | 282 kts | 278° |
| 2026-05-05 12:57 | 61.97650 | 131.87664 | 15727 ft | 279 kts | 278° |
| 2026-05-05 12:57 | 61.97909 | 131.83586 | 15432 ft | 278 kts | 279° |
| 2026-05-05 12:57 | 61.98168 | 131.79483 | 15141 ft | 283 kts | 278° |
| 2026-05-05 12:57 | 61.98432 | 131.75296 | 14838 ft | 286 kts | 278° |
| 2026-05-05 12:58 | 61.98694 | 131.71097 | 14522 ft | 287 kts | 278° |
| 2026-05-05 12:58 | 61.98955 | 131.66906 | 14222 ft | 287 kts | 278° |
| 2026-05-05 12:58 | 61.99215 | 131.62700 | 13923 ft | 287 kts | 278° |
| 2026-05-05 12:58 | 61.99474 | 131.58499 | 13605 ft | 286 kts | 278° |
| 2026-05-05 12:59 | 61.99730 | 131.54316 | 13266 ft | 284 kts | 278° |
| 2026-05-05 12:59 | 61.99984 | 131.50161 | 12929 ft | 282 kts | 278° |
| 2026-05-05 12:59 | 62.00232 | 131.46057 | 12616 ft | 279 kts | 278° |
| 2026-05-05 13:00 | 62.00720 | 131.37963 | 12023 ft | 272 kts | 278° |
| 2026-05-05 13:00 | 62.00958 | 131.33986 | 11724 ft | 269 kts | 277° |
| 2026-05-05 13:01 | 62.01648 | 131.22320 | 10868 ft | 261 kts | 277° |
| 2026-05-05 13:01 | 62.01871 | 131.18496 | 10581 ft | 259 kts | 277° |
| 2026-05-05 13:01 | 62.02092 | 131.14714 | 10292 ft | 257 kts | 277° |
| 2026-05-05 13:01 | 62.02310 | 131.10957 | 10013 ft | 254 kts | 277° |
| 2026-05-05 13:02 | 62.02525 | 131.07233 | 9783 ft | 255 kts | 277° |
| 2026-05-05 13:02 | 62.02743 | 131.03449 | 9583 ft | 260 kts | 277° |
| 2026-05-05 13:02 | 62.02963 | 130.99605 | 9248 ft | 262 kts | 277° |
| 2026-05-05 13:02 | 62.03182 | 130.95757 | 8949 ft | 261 kts | 277° |
| 2026-05-05 13:03 | 62.03399 | 130.91929 | 8648 ft | 259 kts | 277° |
| 2026-05-05 13:03 | 62.03613 | 130.88140 | 8358 ft | 257 kts | 277° |
| 2026-05-05 13:03 | 62.03824 | 130.84386 | 8076 ft | 254 kts | 277° |
| 2026-05-05 13:03 | 62.04033 | 130.80670 | 7796 ft | 252 kts | 277° |
| 2026-05-05 13:04 | 62.04238 | 130.76985 | 7519 ft | 249 kts | 277° |
| 2026-05-05 13:04 | 62.04456 | 130.73338 | 7238 ft | 246 kts | 281° |
| 2026-05-05 13:04 | 62.05088 | 130.69972 | 6936 ft | 245 kts | 297° |
| 2026-05-05 13:04 | 62.05870 | 130.66766 | 6665 ft | 243 kts | 297° |
| 2026-05-05 13:05 | 62.06646 | 130.63596 | 6410 ft | 240 kts | 297° |
| 2026-05-05 13:05 | 62.07418 | 130.60453 | 6148 ft | 239 kts | 297° |
| 2026-05-05 13:05 | 62.08202 | 130.57278 | 5867 ft | 245 kts | 297° |
| 2026-05-05 13:05 | 62.09002 | 130.54038 | 5581 ft | 248 kts | 298° |
| 2026-05-05 13:06 | 62.09806 | 130.50779 | 5296 ft | 249 kts | 298° |
| 2026-05-05 13:06 | 62.10601 | 130.47557 | 5007 ft | 247 kts | 298° |
| 2026-05-05 13:06 | 62.11412 | 130.44262 | 4682 ft | 247 kts | 298° |
| 2026-05-05 13:06 | 62.12198 | 130.41070 | 4404 ft | 245 kts | 298° |
| 2026-05-05 13:07 | 62.12997 | 130.37820 | 4120 ft | 243 kts | 299° |
| 2026-05-05 13:07 | 62.13757 | 130.34719 | 4026 ft | 232 kts | 299° |
| 2026-05-05 13:07 | 62.14486 | 130.31741 | 4010 ft | 219 kts | 299° |
| 2026-05-05 13:07 | 62.15171 | 130.28939 | 3970 ft | 207 kts | 300° |
| 2026-05-05 13:08 | 62.15823 | 130.26273 | 3877 ft | 197 kts | 300° |
| 2026-05-05 13:08 | 62.16441 | 130.23738 | 3833 ft | 188 kts | 300° |
| 2026-05-05 13:08 | 62.17039 | 130.21286 | 3736 ft | 185 kts | 300° |
| 2026-05-05 13:08 | 62.17625 | 130.18847 | 3607 ft | 184 kts | 296° |
| 2026-05-05 13:09 | 62.17962 | 130.16202 | 3467 ft | 185 kts | 285° |
| 2026-05-05 13:09 | 62.18211 | 130.13516 | 3336 ft | 184 kts | 285° |
| 2026-05-05 13:09 | 62.18458 | 130.10826 | 3104 ft | 184 kts | 285° |
| 2026-05-05 13:09 | 62.18702 | 130.08132 | 2843 ft | 185 kts | 285° |
| 2026-05-05 13:10 | 62.18941 | 130.05468 | 2657 ft | 177 kts | 286° |
| 2026-05-05 13:10 | 62.19166 | 130.02951 | 2517 ft | 168 kts | 287° |
| 2026-05-05 13:10 | 62.19378 | 130.00555 | 2332 ft | 159 kts | 287° |
| 2026-05-05 13:10 | 62.19576 | 129.98311 | 2097 ft | 147 kts | 287° |
| 2026-05-05 13:11 | 62.19658 | 129.96184 | 1994 ft | 146 kts | 267° |
| 2026-05-05 13:11 | 62.19207 | 129.94177 | 1984 ft | 157 kts | 242° |
| 2026-05-05 13:11 | 62.18414 | 129.92510 | 1986 ft | 162 kts | 232° |
| 2026-05-05 13:11 | 62.17602 | 129.90850 | 1994 ft | 163 kts | 231° |
| 2026-05-05 13:12 | 62.16709 | 129.89328 | 1867 ft | 162 kts | 226° |
| 2026-05-05 13:12 | 62.15828 | 129.87935 | 1718 ft | 154 kts | 227° |
| 2026-05-05 13:12 | 62.14984 | 129.86577 | 1481 ft | 150 kts | 227° |
| 2026-05-05 13:12 | 62.14159 | 129.85241 | 1265 ft | 149 kts | 225° |
| 2026-05-05 13:13 | 62.13339 | 129.83913 | 1060 ft | 148 kts | 223° |
| 2026-05-05 13:13 | 62.12508 | 129.82571 | 817 ft | 152 kts | 223° |
| 2026-05-05 13:13 | 62.11656 | 129.81222 | 631 ft | 153 kts | 221° |
| 2026-05-05 13:13 | 62.10823 | 129.79886 | 419 ft | 147 kts | 219° |
| 2026-05-05 13:14 | 62.10005 | 129.78592 | 338 ft | 144 kts | 221° |
| 2026-05-05 13:14 | 62.09218 | 129.77343 | 333 ft | 133 kts | 221° |
| 2026-05-05 13:14 | 62.08676 | 129.76450 | 329 ft | 41 kts | 216° |
| 2026-05-05 13:14 | 62.08545 | 129.76247 | 334 ft | 10 kts | 217° |
| 2026-05-05 13:15 | 62.08517 | 129.76129 | 334 ft | 9 kts | 278° |
| 2026-05-05 13:15 | 62.08548 | 129.76014 | 333 ft | 11 kts | 306° |
| 2026-05-05 13:15 | 62.08597 | 129.75875 | 332 ft | 10 kts | 306° |
| 2026-05-05 13:15 | 62.08639 | 129.75741 | 334 ft | 12 kts | 301° |
| 2026-05-05 13:16 | 62.08680 | 129.75587 | 332 ft | 12 kts | 298° |
| 2026-05-05 13:16 | 62.08692 | 129.75452 | 332 ft | 9 kts | 268° |
| 2026-05-05 13:16 | 62.08691 | 129.75319 | 333 ft | 9 kts | 269° |
| 2026-05-05 13:16 | 62.08690 | 129.75183 | 330 ft | 3 kts | 269° |